Flight Track Log - Related Links

Times and Time Zones

All times are in EDT time to prevent confusion due to time zone crossing. See the N789XJ flight status page for this flight to view local times or setup timezone preferences in your user account.

Time Position Orientation Groundspeed Altitude Reporting Facility
EDT Latitude Longitude Course Direction KTS MPH feet Rate Location/Type
Thu 12:56:53 PM 32.8000 -97.0333 62° Northeast 248 285 7,600  Level Dallas / Fort Worth TRACON
Thu 12:57:41 PM 32.7500 -97.0167 164° South 283 326 10,000 2,558 Climbing Dallas / Fort Worth TRACON
Thu 01:00:10 PM 32.6922 -96.8308 110° East 268 308 16,000 2,469 Climbing Fort Worth Center
Thu 01:01:00 PM 32.7753 -96.5306 62° Northeast  Level FlightAware Approximate
Thu 01:01:10 PM 32.7083 -96.7294 79° East 317 365 18,600  Level Fort Worth Center
Thu 01:02:00 PM 32.8230 -96.4232 62° Northeast  Level FlightAware Approximate
Thu 01:02:11 PM 32.7033 -96.5914 92° East 364 419 21,000  Level Fort Worth Center
Thu 01:03:10 PM 32.6961 -96.4631 94° East 410 472 21,000  Level Fort Worth Center
Thu 01:04:10 PM 32.6906 -96.2975 92° East 442 509 21,000  Level Fort Worth Center
Thu 01:05:10 PM 32.6831 -96.1619 94° East 457 526 21,000  Level Fort Worth Center
Thu 01:06:10 PM 32.6750 -95.9894 93° East 465 535 21,000  Level Fort Worth Center
Thu 01:07:10 PM 32.6672 -95.8514 94° East 465 535 21,000  Level Fort Worth Center
Thu 01:08:10 PM 32.6586 -95.6836 93° East 465 535 21,000  Level Fort Worth Center
Thu 01:09:10 PM 32.6483 -95.5481 95° East 459 528 21,000  Level Fort Worth Center
Thu 01:10:10 PM 32.6442 -95.4028 92° East 459 528 21,000 -50 Level Fort Worth Center
Thu 01:11:10 PM 32.6331 -95.2425 95° East 453 521 20,900 -650 Descending Fort Worth Center
Thu 01:12:10 PM 32.6242 -95.0972 94° East 443 510 19,700 -1,200 Descending Fort Worth Center
Thu 01:13:10 PM 32.6153 -94.9519 94° East 443 510 18,500 -850 Descending Fort Worth Center
Thu 01:14:10 PM 32.6061 -94.8067 94° East 443 510 18,000 -250 Descending Fort Worth Center
Thu 01:15:10 PM 32.6014 -94.6886 93° East 443 510 18,000 -300 Level Fort Worth Center
Thu 01:15:50 PM 32.5925 -94.5706 95° East 443 510 17,500 -1,421 Descending Fort Worth Center
Thu 01:16:26 PM 32.5883 -94.4817 93° East 435 501 16,200 -2,250 Descending Fort Worth Center
Thu 01:17:10 PM 32.5839 -94.3733 93° East 435 501 14,500 -2,596 Descending Fort Worth Center
Thu 01:18:10 PM 32.5764 -94.2431 94° East 412 474 11,700 -2,550 Descending Fort Worth Center
Thu 01:19:10 PM 32.5842 -94.1367 85° East 349 402 9,400 -2,500 Descending Fort Worth Center
Thu 01:20:10 PM 32.5881 -94.0478 87° East 280 322 6,700 -2,571 Descending Fort Worth Center
Thu 01:20:41 PM 32.5892 -94.0083 88° East 251 289 5,500 -1,761 Descending Fort Worth Center
Thu 01:21:42 PM 32.5933 -93.9319 86° East 236 272 4,000 -1,388 Descending Fort Worth Center
Thu 01:22:42 PM 32.5975 -93.8650 86° East 202 232 2,700 -1,240 Descending Fort Worth Center
Thu 01:23:43 PM 32.5894 -93.7964 98° East 199 229 1,500 -1,033 Descending Fort Worth Center
Thu 01:24:44 PM 32.5550 -93.7633 141° Southeast 140 161 600 -885 Descending Fort Worth Center

Login

Don't have an account? Register now (free) for customized features, flight alerts, and more!